Time;durP1;ratioP1;P1;durP2;ratioP2;P2;SDS_P1;SDS_P2;PMS_P1;PMS_P2;Temp;Humidity;BMP_temperature;BMP_pressure;BME280_temperature;BME280_humidity;BME280_pressure;Samples;Min_cycle;Max_cycle;Signal;HPM_P1;HPM_P2
2021/12/03 00:00:48;;;;;;;18.42;9.15;;;;;;;0.75;85.76;95414.91;5107867;28;20067;-75
2021/12/03 00:03:14;;;;;;;13.68;8.00;;;;;;;0.67;85.30;95410.13;5107024;28;20052;-75
2021/12/03 00:05:41;;;;;;;15.48;8.50;;;;;;;0.66;85.63;95414.69;5107333;28;20051;-74
2021/12/03 00:08:08;;;;;;;17.25;8.25;;;;;;;0.65;85.37;95423.00;5107130;28;20057;-75
2021/12/03 00:10:37;;;;;;;14.88;8.05;;;;;;;0.62;84.91;95421.69;5107054;28;20090;-74
2021/12/03 00:13:06;;;;;;;16.30;8.35;;;;;;;0.56;84.47;95428.16;5107070;28;20047;-75
2021/12/03 00:15:34;;;;;;;16.35;8.23;;;;;;;0.49;84.18;95436.50;5106979;28;20745;-74
2021/12/03 00:18:01;;;;;;;15.57;7.90;;;;;;;0.44;84.33;95433.03;5107600;28;20043;-74
2021/12/03 00:20:27;;;;;;;14.05;6.78;;;;;;;0.41;84.71;95438.94;5106504;28;20573;-74
2021/12/03 00:22:58;;;;;;;14.48;7.35;;;;;;;0.34;84.29;95441.13;5107671;28;20062;-74
2021/12/03 00:25:25;;;;;;;12.52;6.03;;;;;;;0.32;83.24;95443.28;5106735;28;20059;-75
2021/12/03 00:27:52;;;;;;;12.60;6.20;;;;;;;0.29;82.98;95450.00;5106963;28;20048;-74
2021/12/03 00:30:20;;;;;;;12.23;6.60;;;;;;;0.28;83.26;95458.31;5107041;28;20074;-74
2021/12/03 00:32:49;;;;;;;12.77;6.32;;;;;;;0.30;83.41;95461.50;5107040;28;20052;-74
2021/12/03 00:35:17;;;;;;;16.52;7.50;;;;;;;0.22;82.91;95477.06;5107459;28;20052;-74
2021/12/03 00:37:45;;;;;;;14.55;8.05;;;;;;;0.21;83.38;95482.69;5106555;28;20044;-75
2021/12/03 00:40:15;;;;;;;14.68;7.93;;;;;;;0.18;83.69;95480.56;5107162;28;20048;-74
2021/12/03 00:42:41;;;;;;;14.68;8.00;;;;;;;0.13;83.83;95489.41;5105886;28;20426;-74
2021/12/03 00:45:11;;;;;;;17.13;9.50;;;;;;;0.11;83.80;95494.25;5107076;28;20054;-74
2021/12/03 00:47:40;;;;;;;15.50;8.40;;;;;;;0.11;84.26;95496.91;5109217;28;20059;-74
2021/12/03 00:50:09;;;;;;;16.25;8.63;;;;;;;0.11;84.58;95512.19;5110881;28;20054;-74
2021/12/03 00:52:36;;;;;;;17.90;8.00;;;;;;;0.06;84.90;95526.38;5111539;28;20055;-74
2021/12/03 00:55:04;;;;;;;17.90;8.95;;;;;;;0.02;85.49;95538.69;5110363;27;20073;-74
2021/12/03 00:57:31;;;;;;;17.05;8.90;;;;;;;0.04;85.34;95539.22;5111078;27;20055;-74
2021/12/03 00:59:57;;;;;;;16.42;8.85;;;;;;;0.04;85.27;95547.25;5110302;28;20048;-74
2021/12/03 01:02:24;;;;;;;17.95;10.07;;;;;;;0.04;85.40;95559.81;5111486;28;20040;-75
2021/12/03 01:04:52;;;;;;;21.00;10.02;;;;;;;0.05;85.59;95567.56;5110421;27;20055;-75
2021/12/03 01:07:18;;;;;;;18.88;9.80;;;;;;;0.11;85.82;95566.53;5110642;27;20575;-75
2021/12/03 01:09:45;;;;;;;17.90;8.65;;;;;;;0.16;85.84;95579.91;5110034;27;20417;-74
2021/12/03 01:12:12;;;;;;;18.42;9.07;;;;;;;0.23;85.64;95579.59;5110597;27;20044;-74
2021/12/03 01:14:40;;;;;;;17.20;8.20;;;;;;;0.29;85.62;95578.53;5109612;28;20746;-74
2021/12/03 01:17:07;;;;;;;18.50;9.45;;;;;;;0.32;85.27;95587.91;5109877;28;20104;-74
2021/12/03 01:19:34;;;;;;;19.38;9.88;;;;;;;0.36;85.11;95591.63;5110683;28;20058;-76
2021/12/03 01:22:02;;;;;;;21.48;9.63;;;;;;;0.36;84.89;95597.78;5110253;28;20044;-74
2021/12/03 01:24:28;;;;;;;17.75;8.73;;;;;;;0.35;85.06;95604.22;5110756;27;20059;-74
2021/12/03 01:26:55;;;;;;;20.73;9.35;;;;;;;0.35;85.26;95608.75;5109578;28;20051;-74
2021/12/03 01:29:22;;;;;;;17.27;9.18;;;;;;;0.36;85.23;95605.00;5110117;28;20062;-74
2021/12/03 01:31:50;;;;;;;18.92;9.32;;;;;;;0.40;84.97;95616.78;5109977;27;20047;-75
2021/12/03 01:34:17;;;;;;;18.27;9.05;;;;;;;0.38;85.03;95618.94;5110457;27;20043;-74
2021/12/03 01:36:44;;;;;;;21.88;9.98;;;;;;;0.38;85.27;95622.41;5110325;27;20048;-75
2021/12/03 01:39:13;;;;;;;19.38;9.77;;;;;;;0.38;85.49;95635.81;5109404;27;20051;-75
2021/12/03 01:41:41;;;;;;;20.23;9.82;;;;;;;0.40;85.65;95639.00;5110443;27;20738;-74
2021/12/03 01:44:08;;;;;;;23.92;9.85;;;;;;;0.42;85.55;95646.78;5108511;27;20054;-74
2021/12/03 01:46:35;;;;;;;17.88;8.85;;;;;;;0.41;85.38;95639.81;5110472;28;20051;-74
2021/12/03 01:49:03;;;;;;;16.45;9.35;;;;;;;0.39;85.64;95631.25;5108566;27;20047;-74
2021/12/03 01:51:29;;;;;;;17.52;9.30;;;;;;;0.43;85.80;95632.31;5110821;28;20051;-75
2021/12/03 01:53:56;;;;;;;19.73;9.52;;;;;;;0.44;85.80;95633.94;5110583;28;20058;-74
2021/12/03 01:56:26;;;;;;;18.63;9.60;;;;;;;0.45;85.82;95635.53;5110039;28;20048;-74
2021/12/03 01:58:53;;;;;;;19.80;9.93;;;;;;;0.48;85.86;95637.69;5109126;28;20411;-75
2021/12/03 02:01:23;;;;;;;20.00;9.43;;;;;;;0.48;85.38;95637.69;5110069;27;20048;-74
2021/12/03 02:03:53;;;;;;;20.48;9.65;;;;;;;0.45;85.48;95633.66;5110868;28;20040;-74
2021/12/03 02:06:21;;;;;;;19.20;9.35;;;;;;;0.40;85.58;95627.50;5109580;27;20100;-74
2021/12/03 02:08:48;;;;;;;21.48;10.18;;;;;;;0.36;85.32;95618.41;5109875;27;20043;-74
2021/12/03 02:11:16;;;;;;;24.00;9.82;;;;;;;0.33;85.14;95618.97;5109807;27;20510;-74
2021/12/03 02:13:44;;;;;;;21.20;10.25;;;;;;;0.32;85.48;95622.72;5109580;28;20058;-74
2021/12/03 02:16:13;;;;;;;20.38;10.63;;;;;;;0.32;85.56;95628.88;5109785;27;20047;-74
2021/12/03 02:18:40;;;;;;;21.98;10.55;;;;;;;0.36;85.68;95631.78;5109739;28;20048;-75
2021/12/03 02:21:09;;;;;;;19.65;9.20;;;;;;;0.31;85.20;95629.13;5109535;27;20081;-73
2021/12/03 02:23:37;;;;;;;21.65;10.05;;;;;;;0.28;85.62;95629.69;5109984;27;20051;-74
2021/12/03 02:26:05;;;;;;;19.67;9.85;;;;;;;0.29;85.53;95631.28;5109163;28;20054;-74
2021/12/03 02:28:34;;;;;;;21.10;10.23;;;;;;;0.30;85.45;95635.56;5109562;28;20047;-74
2021/12/03 02:31:04;;;;;;;19.80;10.18;;;;;;;0.31;85.40;95634.47;5109950;27;20074;-74
2021/12/03 02:33:31;;;;;;;23.85;11.05;;;;;;;0.34;85.29;95640.09;5109634;28;20784;-74
2021/12/03 02:35:57;;;;;;;20.75;10.45;;;;;;;0.39;85.49;95641.97;5109926;27;20052;-75
2021/12/03 02:38:26;;;;;;;18.67;9.00;;;;;;;0.34;84.83;95639.31;5108860;28;20052;-75
2021/12/03 02:40:54;;;;;;;19.55;9.95;;;;;;;0.32;85.01;95641.47;5109479;28;20051;-74
2021/12/03 02:43:21;;;;;;;22.20;10.30;;;;;;;0.31;85.31;95645.97;5108858;28;20043;-75
2021/12/03 02:45:50;;;;;;;21.88;11.00;;;;;;;0.28;85.26;95651.09;5109502;28;20047;-75
2021/12/03 02:48:17;;;;;;;22.75;10.93;;;;;;;0.32;85.44;95646.81;5108493;28;20126;-75
2021/12/03 02:50:44;;;;;;;21.20;10.25;;;;;;;0.36;85.60;95658.56;5109236;28;20052;-75
2021/12/03 02:53:11;;;;;;;19.95;10.43;;;;;;;0.29;85.72;95663.41;5109023;27;20047;-74
2021/12/03 02:55:38;;;;;;;19.95;10.25;;;;;;;0.26;86.17;95664.72;5109468;28;20054;-74
2021/12/03 02:58:05;;;;;;;22.33;11.15;;;;;;;0.29;86.89;95663.41;5108520;28;20530;-74
2021/12/03 03:00:34;;;;;;;24.20;10.63;;;;;;;0.30;86.86;95673.03;5109046;28;20047;-74
2021/12/03 03:03:00;;;;;;;21.33;10.82;;;;;;;0.32;87.02;95674.41;5109300;28;20055;-74
2021/12/03 03:05:28;;;;;;;22.63;12.05;;;;;;;0.38;86.89;95680.53;5108852;28;20055;-74
2021/12/03 03:07:56;;;;;;;25.13;11.35;;;;;;;0.43;86.55;95680.53;5108722;28;20054;-74
2021/12/03 03:10:27;;;;;;;21.55;11.35;;;;;;;0.45;86.41;95689.09;5108275;28;20047;-74
2021/12/03 03:12:57;;;;;;;21.10;10.95;;;;;;;0.47;85.83;95693.13;5108270;28;20051;-74
2021/12/03 03:15:23;;;;;;;22.58;11.07;;;;;;;0.42;85.82;95693.13;5108549;28;20502;-74
2021/12/03 03:17:51;;;;;;;24.80;11.15;;;;;;;0.38;86.28;95688.56;5108515;28;20071;-74
2021/12/03 03:20:18;;;;;;;23.05;10.88;;;;;;;0.32;86.89;95684.31;5108383;28;20058;-74
2021/12/03 03:22:47;;;;;;;21.40;10.20;;;;;;;0.32;87.19;95705.72;5108717;28;20051;-74
2021/12/03 03:25:16;;;;;;;23.55;11.90;;;;;;;0.23;87.80;95698.22;5108331;28;20052;-74
2021/12/03 03:27:44;;;;;;;25.10;11.77;;;;;;;0.14;88.37;95697.16;5108417;27;20059;-74
2021/12/03 03:30:14;;;;;;;25.42;12.02;;;;;;;0.08;88.87;95700.91;5108072;28;20058;-73
2021/12/03 03:32:42;;;;;;;27.02;12.18;;;;;;;0.09;88.93;95702.50;5108716;28;20566;-74
2021/12/03 03:35:10;;;;;;;24.20;11.65;;;;;;;0.01;88.86;95708.41;5108128;28;20059;-75
2021/12/03 03:37:36;;;;;;;23.38;11.55;;;;;;;0.00;89.08;95709.47;5108353;28;20522;-74
2021/12/03 03:40:05;;;;;;;27.90;12.40;;;;;;;-0.01;88.91;95707.84;5108012;28;20052;-74
2021/12/03 03:42:33;;;;;;;25.45;11.77;;;;;;;0.02;88.74;95715.34;5105419;28;20052;-74
2021/12/03 03:45:00;;;;;;;22.98;11.50;;;;;;;0.04;88.64;95715.88;5108527;28;20075;-74
2021/12/03 03:47:27;;;;;;;21.85;11.38;;;;;;;0.07;88.39;95722.59;5107560;28;20048;-74
2021/12/03 03:49:54;;;;;;;22.00;11.27;;;;;;;0.07;88.16;95726.06;5108159;28;20043;-74
2021/12/03 03:52:21;;;;;;;22.05;11.77;;;;;;;0.07;88.34;95719.91;5107583;28;20048;-74
2021/12/03 03:54:48;;;;;;;24.63;11.40;;;;;;;0.05;88.28;95720.16;5108541;28;20051;-74
2021/12/03 03:57:14;;;;;;;24.08;11.98;;;;;;;0.08;88.39;95725.00;5107392;27;20084;-74
2021/12/03 03:59:41;;;;;;;22.23;10.68;;;;;;;0.14;88.42;95731.16;5108150;28;20047;-74
2021/12/03 04:02:07;;;;;;;22.77;10.75;;;;;;;0.18;88.06;95732.22;5107572;28;20062;-74
2021/12/03 04:04:35;;;;;;;22.20;10.75;;;;;;;0.17;87.72;95731.44;5108291;28;20624;-74
2021/12/03 04:07:02;;;;;;;20.58;10.85;;;;;;;0.17;87.66;95734.09;5107350;28;20047;-74
2021/12/03 04:09:28;;;;;;;20.48;10.63;;;;;;;0.17;87.88;95736.78;5107429;28;20574;-75
2021/12/03 04:11:55;;;;;;;24.67;11.23;;;;;;;0.19;88.14;95739.97;5107562;28;20051;-74
2021/12/03 04:14:21;;;;;;;23.30;11.68;;;;;;;0.13;88.26;95738.38;5107723;28;20127;-75
2021/12/03 04:16:48;;;;;;;24.73;11.57;;;;;;;0.11;88.36;95734.38;5108026;28;20064;-74
2021/12/03 04:19:15;;;;;;;21.52;11.20;;;;;;;0.11;88.46;95740.53;5106952;28;20052;-74
2021/12/03 04:21:43;;;;;;;24.63;11.85;;;;;;;0.13;88.34;95740.25;5108701;28;20051;-74
2021/12/03 04:24:10;;;;;;;26.50;11.65;;;;;;;0.07;88.85;95736.78;5111704;28;20048;-74
2021/12/03 04:26:36;;;;;;;22.98;11.55;;;;;;;0.04;89.18;95742.66;5111916;28;20054;-74
2021/12/03 04:29:04;;;;;;;23.83;12.05;;;;;;;0.03;89.57;95745.59;5111359;28;20419;-74
2021/12/03 04:31:31;;;;;;;22.17;10.57;;;;;;;-0.02;89.63;95739.16;5111527;28;20503;-74
2021/12/03 04:33:57;;;;;;;23.55;10.30;;;;;;;-0.03;89.60;95739.44;5111831;28;20058;-74
2021/12/03 04:36:24;;;;;;;19.13;10.00;;;;;;;-0.04;89.33;95746.66;5111060;28;20388;-75
2021/12/03 04:38:52;;;;;;;19.90;10.20;;;;;;;-0.02;89.21;95749.06;5111127;28;20619;-74
2021/12/03 04:41:18;;;;;;;20.05;10.55;;;;;;;-0.08;89.13;95750.13;5111415;27;20051;-74
2021/12/03 04:43:45;;;;;;;20.15;11.00;;;;;;;-0.13;89.35;95763.50;5110348;28;20055;-74
2021/12/03 04:46:12;;;;;;;19.67;10.18;;;;;;;-0.12;89.46;95767.78;5111122;28;20051;-74
2021/12/03 04:48:38;;;;;;;21.27;10.82;;;;;;;-0.10;89.43;95773.69;5111378;27;20079;-74
2021/12/03 04:51:05;;;;;;;20.92;10.43;;;;;;;-0.11;89.33;95772.06;5111383;27;20078;-74
2021/12/03 04:53:31;;;;;;;24.27;10.57;;;;;;;-0.13;89.18;95780.34;5111827;27;20069;-74
2021/12/03 04:55:59;;;;;;;20.95;10.52;;;;;;;-0.14;89.21;95783.31;5111574;27;20059;-74
2021/12/03 04:58:26;;;;;;;21.23;10.10;;;;;;;-0.13;88.88;95790.25;5110663;27;20044;-74
2021/12/03 05:00:54;;;;;;;18.80;9.90;;;;;;;-0.14;88.86;95788.66;5111130;28;20522;-74
2021/12/03 05:03:24;;;;;;;20.52;10.20;;;;;;;-0.14;88.69;95789.47;5111166;27;20054;-74
2021/12/03 05:05:53;;;;;;;18.25;9.82;;;;;;;-0.17;88.52;95797.19;5111533;28;20097;-74
2021/12/03 05:08:20;;;;;;;21.70;10.35;;;;;;;-0.19;88.40;95802.03;5110320;27;20047;-74
2021/12/03 05:10:47;;;;;;;19.33;11.10;;;;;;;-0.22;88.53;95802.53;5111473;27;20048;-73
2021/12/03 05:13:16;;;;;;;18.95;8.82;;;;;;;-0.23;88.53;95811.63;5110281;28;20067;-75
2021/12/03 05:15:44;;;;;;;19.23;9.70;;;;;;;-0.26;88.42;95810.31;5111572;28;20082;-74
2021/12/03 05:18:13;;;;;;;18.20;9.50;;;;;;;-0.22;88.52;95815.91;5110323;27;20077;-75
2021/12/03 05:20:40;;;;;;;15.77;9.20;;;;;;;-0.21;88.10;95809.50;5110753;27;20047;-74
2021/12/03 05:23:07;;;;;;;17.42;9.57;;;;;;;-0.24;88.10;95826.09;5110854;27;20052;-74
2021/12/03 05:25:34;;;;;;;19.50;9.48;;;;;;;-0.25;87.70;95832.50;5110794;27;20055;-74
2021/12/03 05:28:01;;;;;;;17.42;9.52;;;;;;;-0.24;87.52;95836.78;5110561;28;20055;-74
2021/12/03 05:30:30;;;;;;;16.27;8.88;;;;;;;-0.21;87.50;95837.06;5110447;28;20055;-74
2021/12/03 05:32:57;;;;;;;18.83;9.48;;;;;;;-0.17;87.46;95832.78;5110837;28;20538;-74
2021/12/03 05:35:25;;;;;;;17.05;9.43;;;;;;;-0.17;87.38;95838.16;5110608;27;20048;-74
2021/12/03 05:37:51;;;;;;;17.67;9.65;;;;;;;-0.14;87.40;95842.19;5110221;27;20043;-74
2021/12/03 05:40:18;;;;;;;17.52;9.82;;;;;;;-0.12;87.20;95846.19;5110114;27;20051;-74
2021/12/03 05:42:46;;;;;;;18.60;10.50;;;;;;;-0.12;87.09;95842.72;5109097;28;20062;-74
2021/12/03 05:45:15;;;;;;;20.10;10.13;;;;;;;-0.12;86.97;95840.03;5110244;27;20047;-74
2021/12/03 05:47:43;;;;;;;17.58;9.85;;;;;;;-0.14;87.12;95851.00;5109890;28;20048;-74
2021/12/03 05:50:12;;;;;;;20.02;10.00;;;;;;;-0.13;87.09;95859.84;5109931;27;20039;-75
2021/12/03 05:52:39;;;;;;;17.27;9.52;;;;;;;-0.13;87.07;95862.53;5110761;27;20047;-74
2021/12/03 05:55:07;;;;;;;19.23;10.10;;;;;;;-0.13;86.80;95866.00;5109992;28;20059;-74
2021/12/03 05:57:34;;;;;;;23.45;11.07;;;;;;;-0.10;86.96;95867.34;5110288;27;20123;-74
2021/12/03 06:00:00;;;;;;;20.52;10.27;;;;;;;-0.05;86.78;95878.88;5110323;28;20047;-74
2021/12/03 06:02:27;;;;;;;21.52;10.50;;;;;;;-0.04;86.74;95875.13;5109934;27;20052;-74
2021/12/03 06:04:55;;;;;;;20.02;9.77;;;;;;;-0.01;86.36;95879.94;5110203;28;20047;-75
2021/12/03 06:07:21;;;;;;;15.82;8.98;;;;;;;-0.03;85.96;95889.31;5109425;28;20520;-75
2021/12/03 06:09:48;;;;;;;17.52;9.80;;;;;;;-0.01;85.69;95887.19;5110394;27;20047;-74
2021/12/03 06:12:14;;;;;;;20.80;9.55;;;;;;;-0.09;85.23;95887.69;5108098;28;20048;-74
2021/12/03 06:14:41;;;;;;;16.67;8.52;;;;;;;-0.09;85.32;95903.75;5110300;28;20062;-74
2021/12/03 06:17:12;;;;;;;16.98;9.00;;;;;;;-0.10;85.48;95902.16;5109328;28;20047;-74
2021/12/03 06:19:38;;;;;;;17.30;9.18;;;;;;;-0.08;85.49;95894.66;5109979;28;20059;-74
2021/12/03 06:22:06;;;;;;;15.18;7.95;;;;;;;-0.09;84.95;95898.41;5109652;27;20047;-74
2021/12/03 06:24:33;;;;;;;14.13;7.88;;;;;;;-0.11;84.77;95908.53;5110193;27;20067;-74
2021/12/03 06:26:59;;;;;;;15.48;8.30;;;;;;;-0.15;85.11;95904.81;5109612;28;20498;-74
2021/12/03 06:29:26;;;;;;;16.45;8.77;;;;;;;-0.20;85.50;95918.16;5109628;27;20054;-74
2021/12/03 06:31:52;;;;;;;19.83;8.90;;;;;;;-0.20;85.71;95928.88;5109681;28;20051;-75
2021/12/03 06:34:19;;;;;;;20.17;10.63;;;;;;;-0.22;85.85;95925.63;5109468;28;20048;-74
2021/12/03 06:36:45;;;;;;;15.18;9.25;;;;;;;-0.21;85.67;95927.22;5109369;28;20043;-74
2021/12/03 06:39:13;;;;;;;18.15;9.43;;;;;;;-0.24;85.76;95935.78;5108969;28;20054;-75
2021/12/03 06:41:40;;;;;;;16.52;9.30;;;;;;;-0.27;85.96;95937.91;5109156;28;20048;-74
2021/12/03 06:44:08;;;;;;;19.67;9.10;;;;;;;-0.31;86.04;95939.50;5107490;28;20403;-74
2021/12/03 06:46:35;;;;;;;19.98;10.00;;;;;;;-0.34;86.03;95934.66;5109417;28;20051;-74
2021/12/03 06:49:02;;;;;;;16.42;9.10;;;;;;;-0.39;86.05;95937.31;5108871;27;20047;-73
2021/12/03 06:51:30;;;;;;;17.30;9.02;;;;;;;-0.39;86.36;95939.19;5109594;28;20122;-74
2021/12/03 06:53:59;;;;;;;16.60;8.85;;;;;;;-0.38;86.21;95954.97;5109293;27;20074;-74
2021/12/03 06:56:33;;;;;;;19.40;8.75;;;;;;;-0.32;86.08;95948.56;5108956;28;20047;-74
2021/12/03 06:59:00;;;;;;;14.98;8.98;;;;;;;-0.32;86.01;95959.28;5109073;28;20130;-74
2021/12/03 07:01:26;;;;;;;15.68;8.00;;;;;;;-0.27;85.77;95961.19;5108278;28;20047;-73
2021/12/03 07:03:53;;;;;;;16.27;8.63;;;;;;;-0.24;85.75;95965.22;5109202;27;20078;-74
2021/12/03 07:06:19;;;;;;;17.90;9.15;;;;;;;-0.22;85.44;95973.78;5108360;28;20044;-74
2021/12/03 07:08:46;;;;;;;17.15;9.10;;;;;;;-0.19;85.63;95978.63;5108988;28;20578;-73
2021/12/03 07:11:12;;;;;;;18.25;9.23;;;;;;;-0.18;85.45;95966.88;5107739;28;20075;-73
2021/12/03 07:13:40;;;;;;;16.35;8.98;;;;;;;-0.21;85.33;95980.75;5107018;27;20056;-74
2021/12/03 07:16:07;;;;;;;17.35;8.93;;;;;;;-0.24;85.48;95981.28;5108310;27;20050;-73
2021/12/03 07:18:33;;;;;;;19.75;9.20;;;;;;;-0.22;85.76;95984.50;5108738;28;20060;-75
2021/12/03 07:21:00;;;;;;;17.67;9.75;;;;;;;-0.25;85.46;95993.06;5108562;28;20414;-74
2021/12/03 07:23:26;;;;;;;19.65;9.45;;;;;;;-0.20;85.79;95987.72;5108585;27;20054;-74
2021/12/03 07:25:53;;;;;;;15.15;8.55;;;;;;;-0.11;85.42;95992.31;5107718;28;20062;-74
2021/12/03 07:28:20;;;;;;;14.63;8.48;;;;;;;-0.11;84.94;95992.31;5107739;28;20422;-75
2021/12/03 07:30:48;;;;;;;16.17;8.50;;;;;;;-0.07;84.89;95997.97;5108428;28;20414;-75
2021/12/03 07:33:17;;;;;;;16.40;8.93;;;;;;;-0.05;84.95;96011.91;5106906;28;20063;-75
2021/12/03 07:35:45;;;;;;;17.08;8.80;;;;;;;-0.03;84.52;96007.09;5108427;28;20075;-75
2021/12/03 07:38:11;;;;;;;16.15;8.75;;;;;;;0.01;84.81;96004.72;5106260;28;20055;-74
2021/12/03 07:40:38;;;;;;;15.32;8.60;;;;;;;0.02;84.21;96012.47;5105026;28;20109;-75
2021/12/03 07:43:05;;;;;;;15.73;8.63;;;;;;;0.05;83.71;96019.97;5095998;28;20412;-74
2021/12/03 07:45:32;;;;;;;17.67;9.07;;;;;;;0.03;83.92;96016.75;5108330;28;20071;-75
2021/12/03 07:48:00;;;;;;;16.45;9.00;;;;;;;0.05;83.52;96021.84;5105713;28;20051;-76
2021/12/03 07:50:26;;;;;;;16.95;8.73;;;;;;;0.08;83.16;96016.78;5106887;28;20047;-75
2021/12/03 07:52:53;;;;;;;14.82;8.73;;;;;;;0.06;82.87;96023.50;5107253;28;20051;-76
2021/12/03 07:55:20;;;;;;;17.08;9.05;;;;;;;0.10;83.30;96025.34;5106692;28;20052;-74
2021/12/03 07:57:46;;;;;;;14.00;8.20;;;;;;;0.14;82.88;96031.81;5106866;28;20057;-75
2021/12/03 08:00:13;;;;;;;18.20;9.43;;;;;;;0.20;82.91;96030.78;5106855;28;20415;-75
2021/12/03 08:02:40;;;;;;;16.05;8.27;;;;;;;0.22;82.71;96034.00;5108029;28;20055;-75
2021/12/03 08:05:08;;;;;;;15.52;9.38;;;;;;;0.23;82.41;96035.63;5106548;28;20047;-76
2021/12/03 08:07:35;;;;;;;17.10;9.20;;;;;;;0.24;82.52;96037.22;5107119;28;20051;-74
2021/12/03 08:10:01;;;;;;;17.90;8.70;;;;;;;0.25;82.48;96038.84;5107194;28;20043;-75
2021/12/03 08:12:28;;;;;;;16.67;8.68;;;;;;;0.23;82.43;96040.97;5106532;28;20048;-75
2021/12/03 08:14:54;;;;;;;16.13;8.95;;;;;;;0.25;81.85;96044.19;5107066;28;20529;-75
2021/12/03 08:17:21;;;;;;;15.20;7.47;;;;;;;0.24;81.69;96047.94;5107232;28;20056;-76
2021/12/03 08:19:47;;;;;;;16.10;8.05;;;;;;;0.21;81.22;96053.81;5107987;28;20137;-75
2021/12/03 08:22:15;;;;;;;16.23;7.95;;;;;;;0.19;81.53;96044.44;5107463;28;20043;-76
2021/12/03 08:24:41;;;;;;;18.02;8.52;;;;;;;0.20;81.65;96041.47;5107564;28;20061;-75
2021/12/03 08:27:08;;;;;;;14.13;8.27;;;;;;;0.22;82.18;96052.75;5107380;28;20048;-74
2021/12/03 08:29:34;;;;;;;14.57;7.85;;;;;;;0.29;81.59;96059.75;5107364;28;20051;-75
2021/12/03 08:32:01;;;;;;;14.60;8.27;;;;;;;0.30;80.85;96056.00;5108110;28;20047;-75
2021/12/03 08:34:28;;;;;;;13.93;7.45;;;;;;;0.28;80.70;96066.19;5107567;28;20052;-74
2021/12/03 08:36:54;;;;;;;15.25;7.88;;;;;;;0.29;80.45;96059.75;5107577;28;20050;-74
2021/12/03 08:39:22;;;;;;;12.57;7.47;;;;;;;0.33;80.76;96063.53;5106841;28;20051;-76
2021/12/03 08:41:49;;;;;;;16.25;7.90;;;;;;;0.35;80.39;96072.91;5103904;28;20054;-75
2021/12/03 08:44:16;;;;;;;15.07;7.82;;;;;;;0.42;80.77;96083.41;5107237;28;20105;-75
2021/12/03 08:46:43;;;;;;;13.95;8.27;;;;;;;0.43;80.97;96082.31;5107513;28;20055;-74
2021/12/03 08:49:15;;;;;;;14.13;8.55;;;;;;;0.39;80.89;96081.22;5106801;28;20581;-74
2021/12/03 08:51:54;;;;;;;15.82;7.85;;;;;;;0.39;81.21;96076.69;5107711;28;20055;-75
2021/12/03 08:57:06;;;;;;;17.58;8.35;;;;;;;0.51;81.59;96089.84;5106543;28;20092;-75
2021/12/03 08:59:32;;;;;;;16.35;8.60;;;;;;;0.51;81.57;96087.19;5107752;28;20059;-75
2021/12/03 09:01:59;;;;;;;17.08;8.73;;;;;;;0.54;82.08;96089.34;5107435;28;20040;-75
2021/12/03 09:04:25;;;;;;;13.88;7.47;;;;;;;0.55;81.76;96085.59;5107045;28;20047;-74
2021/12/03 09:06:52;;;;;;;14.43;8.07;;;;;;;0.55;81.67;96095.50;5107243;28;20126;-75
2021/12/03 09:09:18;;;;;;;18.38;9.27;;;;;;;0.57;81.82;96088.81;5110512;28;20048;-74
2021/12/03 09:11:45;;;;;;;15.80;8.68;;;;;;;0.61;82.00;96089.91;5111048;28;20514;-75
2021/12/03 09:14:17;;;;;;;14.25;8.40;;;;;;;0.69;82.00;96085.94;5110097;27;20044;-74
2021/12/03 09:16:47;;;;;;;15.55;9.05;;;;;;;0.81;81.40;96101.78;5111256;28;20605;-74
2021/12/03 09:19:20;;;;;;;17.92;7.20;;;;;;;0.93;80.30;96095.13;5110673;28;20062;-75
2021/12/03 09:21:47;;;;;;;18.52;7.80;;;;;;;1.07;80.14;96092.75;5111354;27;20562;-75
2021/12/03 09:24:16;;;;;;;15.68;8.60;;;;;;;1.19;79.51;96090.66;5110875;28;20058;-74
2021/12/03 09:26:43;;;;;;;12.38;7.25;;;;;;;1.30;77.93;96089.63;5110751;28;20058;-74
2021/12/03 09:29:12;;;;;;;15.02;6.90;;;;;;;1.29;77.46;96090.66;5110380;28;20510;-77
2021/12/03 09:31:42;;;;;;;12.73;7.30;;;;;;;1.30;77.47;96097.66;5110818;27;20453;-75
2021/12/03 09:34:10;;;;;;;12.98;6.80;;;;;;;1.37;76.67;96091.22;5110703;27;20055;-75
2021/12/03 09:36:40;;;;;;;11.65;7.00;;;;;;;1.42;76.24;96093.94;5110343;28;20051;-75
2021/12/03 09:39:09;;;;;;;12.25;7.65;;;;;;;1.52;75.50;96102.00;5110015;27;20051;-73
2021/12/03 09:41:35;;;;;;;18.95;8.38;;;;;;;1.77;76.08;96085.88;5110568;27;20059;-75
2021/12/03 09:44:03;;;;;;;11.13;6.43;;;;;;;1.94;73.41;96084.84;5109002;28;20052;-73
2021/12/03 09:46:30;;;;;;;10.73;7.05;;;;;;;2.07;72.98;96089.63;5110476;28;20137;-75
2021/12/03 09:49:20;;;;;;;11.57;6.78;;;;;;;2.04;71.46;96098.25;5110418;28;20071;-75
2021/12/03 09:51:55;;;;;;;12.68;6.30;;;;;;;1.94;72.70;96103.63;5110137;27;20048;-76
2021/12/03 09:54:29;;;;;;;11.63;6.65;;;;;;;2.15;73.41;96102.53;5110202;28;20489;-74
2021/12/03 09:57:00;;;;;;;11.52;6.22;;;;;;;2.21;72.35;96095.28;5110062;28;20050;-75
2021/12/03 10:02:24;;;;;;;9.77;6.30;;;;;;;1.79;72.33;96104.44;5097103;28;20189;-75
2021/12/03 10:13:29;;;;;;;11.40;6.80;;;;;;;1.31;74.03;96101.16;5124556;27;20467;-76
2021/12/03 10:16:06;;;;;;;11.40;7.15;;;;;;;1.34;74.13;96097.13;5130391;27;20059;-76
2021/12/03 10:18:41;;;;;;;12.20;7.47;;;;;;;1.42;74.78;96099.28;5129860;27;20043;-76
2021/12/03 10:21:19;;;;;;;13.27;8.18;;;;;;;1.55;75.95;96093.38;5129362;27;20525;-74
2021/12/03 10:29:44;;;;;;;12.18;6.95;;;;;;;1.88;73.47;96080.50;5123547;27;20066;-77
2021/12/03 10:46:37;;;;;;;8.90;6.07;;;;;;;2.48;69.60;96062.69;5101421;28;20054;-76
2021/12/03 10:49:17;;;;;;;12.27;6.80;;;;;;;2.76;71.94;96062.06;5108707;28;20050;-75
2021/12/03 10:51:50;;;;;;;12.05;6.90;;;;;;;3.08;69.50;96060.81;5109690;28;20138;-76
2021/12/03 10:54:41;;;;;;;9.75;5.25;;;;;;;3.05;65.75;96054.13;5107684;27;20055;-77
2021/12/03 10:57:34;;;;;;;13.05;5.88;;;;;;;3.07;67.75;96046.56;5108586;27;20052;-74
2021/12/03 11:00:36;;;;;;;10.13;5.97;;;;;;;2.99;65.85;96049.06;5108594;28;20043;-75
2021/12/03 11:17:54;;;;;;;8.35;4.97;;;;;;;2.42;67.09;96043.09;5107550;28;20066;-76
2021/12/03 11:29:16;;;;;;;8.52;4.70;;;;;;;1.90;65.81;96035.41;5108047;28;20059;-75
2021/12/03 11:37:36;;;;;;;8.30;5.00;;;;;;;1.79;66.45;96045.38;5107598;28;19927;-75
2021/12/03 14:37:13;;;;;;;5.25;3.80;;;;;;;1.13;65.55;95991.69;5108307;27;20674;-74
2021/12/03 14:45:27;;;;;;;8.88;4.20;;;;;;;1.05;66.03;95982.31;5108878;28;20050;-74
2021/12/03 14:51:00;;;;;;;10.38;4.30;;;;;;;1.02;66.00;95998.91;5098016;28;20054;-74
2021/12/03 14:53:55;;;;;;;7.20;3.70;;;;;;;0.98;65.97;95992.47;5109008;28;20787;-74
2021/12/03 14:56:24;;;;;;;8.07;3.90;;;;;;;0.95;65.75;96003.72;5109004;28;22146;-74
2021/12/03 14:59:07;;;;;;;6.00;3.20;;;;;;;0.90;65.86;96001.03;5117633;27;20047;-74
2021/12/03 15:01:41;;;;;;;6.53;3.88;;;;;;;0.86;66.59;96006.13;5121500;27;20054;-74
2021/12/03 15:07:03;;;;;;;7.05;3.70;;;;;;;0.85;67.23;96009.88;5117791;27;20058;-75
2021/12/03 15:09:33;;;;;;;5.82;3.90;;;;;;;0.82;67.73;96004.22;5117124;27;20043;-74
2021/12/03 15:12:25;;;;;;;8.68;3.88;;;;;;;0.81;67.83;95995.38;5107598;28;20052;-74
2021/12/03 15:15:39;;;;;;;6.55;4.00;;;;;;;0.81;68.40;96002.63;5107742;27;20042;-74
2021/12/03 15:26:31;;;;;;;11.65;5.03;;;;;;;0.75;68.96;95999.91;5068447;28;20502;-74
2021/12/03 15:31:47;;;;;;;8.25;5.18;;;;;;;0.75;68.99;95986.53;5105397;27;20613;-75
2021/12/03 15:34:28;;;;;;;8.00;5.03;;;;;;;0.78;68.97;95995.91;5090861;28;20052;-73
2021/12/03 15:37:10;;;;;;;11.13;5.03;;;;;;;0.81;69.16;95991.91;5102901;27;20058;-74
2021/12/03 15:39:56;;;;;;;10.25;4.78;;;;;;;0.82;69.30;95993.50;5096537;28;20131;-74
2021/12/03 15:56:19;;;;;;;12.77;5.07;;;;;;;0.74;69.68;95984.13;5102082;28;20054;-75
2021/12/03 16:04:25;;;;;;;9.55;5.03;;;;;;;0.61;70.75;95980.03;5088079;28;20104;-74
2021/12/03 16:12:27;;;;;;;11.32;5.22;;;;;;;0.54;69.99;95982.19;5101441;28;20107;-74
2021/12/03 16:15:19;;;;;;;9.70;5.22;;;;;;;0.51;70.13;95982.69;5092603;28;20168;-75
2021/12/03 16:23:39;;;;;;;9.02;5.13;;;;;;;0.46;70.47;95980.00;5056430;28;20071;-75
2021/12/03 16:26:31;;;;;;;12.65;6.38;;;;;;;0.40;70.96;95965.78;5101784;28;20630;-75
2021/12/03 16:45:55;;;;;;;11.65;6.53;;;;;;;0.39;72.58;95949.97;5107178;28;20050;-75
2021/12/03 16:53:56;;;;;;;18.63;9.52;;;;;;;0.37;72.77;95957.50;5096626;28;20066;-74